Terminal Aerodrome Forecast
Issued by NWS

Home | Current Version | Previous Version | Text Only | Print | Product List | Glossary On
Versions: 1 2 3 4 5 6 7 8 9 10 11 12 13 14 15 16 17 18 19 20 21 22
000
FTUS43 KAPX 041723
TAFTVC
TAF
KTVC 041723Z 0418/0518 08006KT P6SM VCSH BKN015
     FM050200 00000KT 6SM BR SCT040
     FM050900 00000KT 2SM BR BKN005
     FM051400 22004KT P6SM BKN015=

USA.gov is the U.S. government's official web portal to all federal, state and local government web resources and services.